createdAt,value
2022-09-02T00:04:04.954Z,34.20
2022-09-02T00:14:11.435Z,36.40
2022-09-02T00:24:13.938Z,36.40
2022-09-02T00:34:16.135Z,38.00
2022-09-02T00:44:21.131Z,37.50
2022-09-02T00:54:29.879Z,37.80
2022-09-02T01:04:32.011Z,36.00
2022-09-02T01:14:34.335Z,37.70
2022-09-02T01:24:36.711Z,38.00
2022-09-02T01:34:38.774Z,39.80
2022-09-02T01:44:46.291Z,39.10
2022-09-02T01:54:49.733Z,39.40
2022-09-02T02:04:52.372Z,38.00
2022-09-02T02:14:55.026Z,39.50
2022-09-02T02:24:58.093Z,42.80
2022-09-02T02:35:00.193Z,43.50
2022-09-02T02:45:02.754Z,40.00
2022-09-02T02:55:04.515Z,40.40
2022-09-02T03:05:11.892Z,43.30
2022-09-02T03:15:14.315Z,43.70
2022-09-02T03:25:18.952Z,43.30
2022-09-02T03:35:24.392Z,45.80
2022-09-02T03:45:26.871Z,45.80
2022-09-02T03:55:30.551Z,45.60
2022-09-02T04:05:33.010Z,45.80
2022-09-02T04:15:35.754Z,48.80
2022-09-02T04:25:42.855Z,47.00
2022-09-02T04:35:52.811Z,47.10
2022-09-02T04:45:56.216Z,50.40
2022-09-02T04:55:59.294Z,47.00
2022-09-02T05:06:12.630Z,47.20
2022-09-02T05:16:23.506Z,49.60
2022-09-02T05:26:31.476Z,51.00
2022-09-02T05:36:34.873Z,54.90
2022-09-02T05:46:46.786Z,53.10
2022-09-02T05:56:57.775Z,53.60
2022-09-02T06:07:00.957Z,53.90
2022-09-02T06:17:03.513Z,55.00
2022-09-02T06:27:14.314Z,56.90
2022-09-02T06:37:20.232Z,52.50
2022-09-02T06:47:23.380Z,53.60
2022-09-02T06:57:34.081Z,49.90
2022-09-02T07:07:48.934Z,44.10
2022-09-02T07:17:51.775Z,41.50
2022-09-02T07:28:07.431Z,29.20
2022-09-02T07:38:11.959Z,22.60
2022-09-02T07:48:13.836Z,19.10
2022-09-02T07:58:21.899Z,17.10
2022-09-02T08:08:24.156Z,15.70
2022-09-02T08:18:29.337Z,15.20
2022-09-02T08:28:32.304Z,13.40
2022-09-02T08:38:34.458Z,13.40
2022-09-02T08:48:42.720Z,11.50
2022-09-02T08:58:51.958Z,10.10
2022-09-02T09:09:31.537Z,10.60
2022-09-02T09:19:54.041Z,9.40
2022-09-02T09:29:56.233Z,7.40
2022-09-02T09:39:57.916Z,6.90
2022-09-02T09:50:20.953Z,5.50
2022-09-02T10:00:34.437Z,3.50
2022-09-02T10:10:38.278Z,3.10
2022-09-02T10:21:13.943Z,2.50
2022-09-02T10:31:37.343Z,2.20
2022-09-02T10:41:50.672Z,3.80
2022-09-02T10:52:06.483Z,1.50
2022-09-02T11:02:08.516Z,1.90
2022-09-02T11:12:22.931Z,1.00
2022-09-02T11:23:02.717Z,1.30
2022-09-02T11:33:25.333Z,2.10
2022-09-02T11:44:08.837Z,2.30
2022-09-02T11:54:14.633Z,1.00
2022-09-02T12:15:10.475Z,1.00
2022-09-02T12:25:39.676Z,1.00
2022-09-02T12:36:03.593Z,1.00
2022-09-02T12:46:26.090Z,1.00
2022-09-02T12:56:28.294Z,1.00
2022-09-02T13:07:12.135Z,2.30
2022-09-02T13:17:51.973Z,1.30
2022-09-02T13:28:29.976Z,1.00
2022-09-02T13:38:34.852Z,1.00
2022-09-02T13:48:37.337Z,1.00
2022-09-02T13:58:56.214Z,1.00
2022-09-02T14:09:02.436Z,1.00
2022-09-02T14:19:13.414Z,1.00
2022-09-02T14:29:23.674Z,1.00
2022-09-02T14:39:25.399Z,1.00
2022-09-02T14:49:38.457Z,1.10
2022-09-02T14:59:40.216Z,1.00
2022-09-02T15:09:42.917Z,1.00
2022-09-02T15:19:44.934Z,1.00
2022-09-02T15:29:47.055Z,1.00
2022-09-02T15:39:48.765Z,1.00
2022-09-02T15:49:51.033Z,1.00
2022-09-02T15:59:53.553Z,1.00
2022-09-02T16:09:56.565Z,1.00
2022-09-02T16:20:01.256Z,1.00
2022-09-02T16:30:03.176Z,1.00
2022-09-02T16:40:06.961Z,1.60
2022-09-02T16:50:09.536Z,1.90
2022-09-02T17:00:12.354Z,2.30
2022-09-02T17:10:14.697Z,3.10
2022-09-02T17:20:16.641Z,3.20
2022-09-02T17:30:18.896Z,3.60
2022-09-02T17:40:38.938Z,3.30
2022-09-02T17:50:42.455Z,4.90
2022-09-02T18:00:48.001Z,5.80
2022-09-02T18:11:01.615Z,6.60
2022-09-02T18:21:19.893Z,8.00
2022-09-02T18:31:50.194Z,8.50
2022-09-02T18:42:17.356Z,9.00
2022-09-02T18:52:19.214Z,10.90
2022-09-02T19:02:54.493Z,11.00
2022-09-02T19:12:58.556Z,10.50
2022-09-02T19:23:01.273Z,10.10
2022-09-02T19:33:09.274Z,10.20
2022-09-02T19:43:14.373Z,9.90
2022-09-02T19:53:33.216Z,8.50
2022-09-02T20:03:35.822Z,8.60
2022-09-02T20:13:41.571Z,9.00
2022-09-02T20:23:47.914Z,8.90
2022-09-02T20:34:33.574Z,8.80
2022-09-02T20:44:50.091Z,9.10
2022-09-02T20:55:02.071Z,9.10
2022-09-02T21:05:22.373Z,9.20
2022-09-02T21:15:38.496Z,9.40
2022-09-02T21:26:07.539Z,9.10
2022-09-02T21:36:10.860Z,9.20
2022-09-02T21:46:29.796Z,9.30
2022-09-02T21:56:50.497Z,9.60
2022-09-02T22:06:59.951Z,9.90
2022-09-02T22:17:12.242Z,9.80
2022-09-02T22:27:18.519Z,10.50
2022-09-02T22:37:26.926Z,10.00
2022-09-02T22:47:50.264Z,10.50
2022-09-02T22:58:13.717Z,10.50
2022-09-02T23:08:19.256Z,10.90
2022-09-02T23:18:37.163Z,10.50
2022-09-02T23:29:03.220Z,10.00
2022-09-02T23:39:30.066Z,10.60
2022-09-02T23:49:48.017Z,9.20
